Time;durP1;ratioP1;P1;durP2;ratioP2;P2;SDS_P1;SDS_P2;PMS_P1;PMS_P2;Temp;Humidity;BMP_temperature;BMP_pressure;BME280_temperature;BME280_humidity;BME280_pressure;Samples;Min_cycle;Max_cycle;Signal;HPM_P1;HPM_P2
2022/04/15 00:00:15;;;;;;;6.45;3.78;;;;;;;7.74;100.00;102643.03;5112534;28;20043;-25
2022/04/15 00:02:43;;;;;;;3.28;2.00;;;;;;;7.69;100.00;102649.28;5112423;28;20075;-32
2022/04/15 00:07:56;;;;;;;2.80;1.80;;;;;;;7.59;100.00;102649.84;5110777;28;20123;-26
2022/04/15 00:10:25;;;;;;;3.67;2.67;;;;;;;7.57;100.00;102652.03;5112527;28;20074;-31
2022/04/15 00:12:55;;;;;;;5.15;2.45;;;;;;;7.56;100.00;102652.28;5108163;28;20044;-29
2022/04/15 00:15:24;;;;;;;5.03;2.17;;;;;;;7.53;100.00;102656.38;5112303;28;20059;-29
2022/04/15 00:17:52;;;;;;;3.85;1.90;;;;;;;7.49;100.00;102657.06;5110794;28;20039;-30
2022/04/15 00:20:20;;;;;;;2.85;1.65;;;;;;;7.46;100.00;102643.63;5112350;28;20100;-32
2022/04/15 00:22:48;;;;;;;3.05;1.67;;;;;;;7.44;100.00;102652.22;5112165;28;20043;-31
2022/04/15 00:25:16;;;;;;;4.10;1.95;;;;;;;7.39;100.00;102649.31;5111509;28;20362;-31
2022/04/15 00:27:44;;;;;;;4.97;1.60;;;;;;;7.36;100.00;102654.47;5112047;28;20155;-28
2022/04/15 00:30:12;;;;;;;2.75;1.60;;;;;;;7.33;100.00;102654.94;5112015;28;20047;-31
2022/04/15 00:32:42;;;;;;;3.45;1.75;;;;;;;7.29;100.00;102649.00;5111067;28;20048;-26
2022/04/15 00:35:11;;;;;;;3.53;1.63;;;;;;;7.25;100.00;102651.38;5112107;28;20069;-28
2022/04/15 00:37:39;;;;;;;4.55;2.15;;;;;;;7.23;100.00;102655.47;5111947;28;20036;-31
2022/04/15 00:40:10;;;;;;;5.15;1.98;;;;;;;7.20;100.00;102655.94;5111120;28;20055;-29
2022/04/15 00:42:37;;;;;;;4.50;2.05;;;;;;;7.16;100.00;102661.13;5112009;28;20051;-27
2022/04/15 00:45:09;;;;;;;4.03;1.73;;;;;;;7.14;100.00;102663.28;5111902;28;20040;-28
2022/04/15 00:47:53;;;;;;;3.45;1.50;;;;;;;7.12;100.00;102659.91;5111053;28;20085;-31
2022/04/15 00:50:22;;;;;;;4.63;1.85;;;;;;;7.08;100.00;102657.81;5112396;28;20391;-25
2022/04/15 00:52:52;;;;;;;2.38;1.48;;;;;;;7.05;100.00;102656.34;5111944;28;20044;-28
2022/04/15 00:55:21;;;;;;;3.22;1.20;;;;;;;7.03;100.00;102654.88;5111097;28;20043;-27
2022/04/15 00:57:50;;;;;;;3.45;1.45;;;;;;;7.00;100.00;102655.31;5111591;28;20046;-27
2022/04/15 01:00:19;;;;;;;5.55;2.10;;;;;;;6.96;100.00;102659.66;5111200;28;20052;-25
2022/04/15 01:02:48;;;;;;;2.97;1.20;;;;;;;6.93;100.00;102660.13;5111640;28;20040;-33
2022/04/15 01:05:17;;;;;;;3.78;1.65;;;;;;;6.89;100.00;102668.91;5112107;28;20074;-27
2022/04/15 01:07:49;;;;;;;4.40;1.20;;;;;;;6.85;100.00;102662.13;5113607;28;20039;-29
2022/04/15 01:10:19;;;;;;;2.38;1.23;;;;;;;6.82;100.00;102667.28;5115549;28;20047;-32
2022/04/15 01:12:48;;;;;;;2.58;1.52;;;;;;;6.79;100.00;102665.84;5116001;28;20453;-26
2022/04/15 01:15:37;;;;;;;3.63;1.13;;;;;;;6.77;100.00;102672.69;5105673;28;20039;-29
2022/04/15 01:18:05;;;;;;;2.85;1.27;;;;;;;6.73;100.00;102665.91;5115620;28;20036;-31
2022/04/15 01:20:35;;;;;;;3.85;1.80;;;;;;;6.70;100.00;102677.44;5104265;28;20048;-30
2022/04/15 01:23:07;;;;;;;3.63;1.67;;;;;;;6.67;100.00;102673.19;5114894;28;20519;-27
2022/04/15 01:25:35;;;;;;;2.83;1.70;;;;;;;6.63;100.00;102673.88;5115501;28;20130;-26
2022/04/15 01:28:04;;;;;;;3.15;1.30;;;;;;;6.59;100.00;102676.28;5115382;28;20800;-32
2022/04/15 01:30:31;;;;;;;4.65;1.48;;;;;;;6.57;100.00;102676.50;5114396;28;20044;-24
2022/04/15 01:32:59;;;;;;;3.40;1.40;;;;;;;6.54;100.00;102670.56;5115334;28;20044;-26
2022/04/15 01:35:33;;;;;;;3.95;1.40;;;;;;;6.51;100.00;102668.25;5114016;28;20047;-29
2022/04/15 01:38:04;;;;;;;3.25;1.65;;;;;;;6.49;100.00;102668.47;5115392;28;20031;-33
2022/04/15 01:40:33;;;;;;;2.80;1.70;;;;;;;6.46;100.00;102670.84;5114802;28;20036;-32
2022/04/15 01:43:01;;;;;;;3.10;1.60;;;;;;;6.42;100.00;102667.69;5114507;28;20048;-36
2022/04/15 01:45:29;;;;;;;2.75;1.42;;;;;;;6.40;100.00;102674.53;5114777;28;20043;-32
2022/04/15 01:47:57;;;;;;;4.05;1.60;;;;;;;6.39;100.00;102682.03;5113505;28;20131;-27
2022/04/15 01:50:27;;;;;;;3.78;1.70;;;;;;;6.36;100.00;102676.91;5114309;27;20090;-26
2022/04/15 01:52:55;;;;;;;2.65;1.55;;;;;;;6.34;100.00;102681.84;5113733;28;20047;-27
2022/04/15 01:55:23;;;;;;;2.88;1.88;;;;;;;6.32;100.00;102675.66;5114946;28;20424;-28
2022/04/15 01:57:52;;;;;;;2.42;1.33;;;;;;;6.30;100.00;102682.50;5113899;28;20120;-33
2022/04/15 02:00:20;;;;;;;3.58;1.58;;;;;;;6.27;100.00;102688.50;5113202;28;20039;-30
2022/04/15 02:02:48;;;;;;;3.38;1.50;;;;;;;6.22;100.00;102681.72;5114936;28;20519;-26
2022/04/15 02:05:15;;;;;;;3.83;2.38;;;;;;;6.20;100.00;102683.84;5113741;27;20047;-28
2022/04/15 02:07:43;;;;;;;4.28;1.70;;;;;;;6.18;100.00;102682.41;5114427;28;20066;-30
2022/04/15 02:10:11;;;;;;;3.00;1.50;;;;;;;6.16;100.00;102684.56;5114436;28;20044;-27
2022/04/15 02:12:39;;;;;;;3.65;1.60;;;;;;;6.12;100.00;102686.94;5113670;28;20054;-31
2022/04/15 02:15:09;;;;;;;2.55;1.58;;;;;;;6.10;100.00;102691.00;5114224;28;20043;-30
2022/04/15 02:17:37;;;;;;;3.13;1.77;;;;;;;6.05;100.00;102688.03;5112282;28;20131;-27
2022/04/15 02:20:06;;;;;;;3.95;2.00;;;;;;;6.04;100.00;102700.19;5114659;28;20055;-27
2022/04/15 02:22:34;;;;;;;3.17;1.55;;;;;;;6.02;100.00;102694.03;5114005;28;20390;-29
2022/04/15 02:25:01;;;;;;;4.72;1.65;;;;;;;5.99;100.00;102691.72;5113363;28;20164;-27
2022/04/15 02:27:29;;;;;;;2.50;1.63;;;;;;;5.97;100.00;102691.09;5113843;28;20051;-27
2022/04/15 02:29:57;;;;;;;3.50;1.80;;;;;;;5.95;100.00;102696.00;5114029;27;20054;-23
2022/04/15 02:32:27;;;;;;;3.63;2.03;;;;;;;5.93;100.00;102695.38;5113571;28;20056;-33
2022/04/15 02:34:54;;;;;;;4.43;2.08;;;;;;;5.92;100.00;102702.84;5114054;28;20077;-29
2022/04/15 02:37:22;;;;;;;3.30;1.90;;;;;;;5.90;100.00;102704.13;5113843;28;20101;-25
2022/04/15 02:39:50;;;;;;;3.10;1.90;;;;;;;5.87;100.00;102706.25;5109396;28;20071;-32
2022/04/15 02:42:18;;;;;;;4.97;1.95;;;;;;;5.87;100.00;102702.63;5113683;28;20054;-29
2022/04/15 02:44:46;;;;;;;3.28;1.90;;;;;;;5.86;100.00;102703.69;5113797;28;20407;-33
2022/04/15 02:47:13;;;;;;;4.30;2.42;;;;;;;5.85;100.00;102711.16;5113121;28;20482;-28
2022/04/15 02:49:43;;;;;;;3.88;2.28;;;;;;;5.85;100.00;102713.06;5113741;28;20043;-28
2022/04/15 02:52:10;;;;;;;3.08;1.90;;;;;;;5.84;100.00;102720.53;5113651;28;20519;-27
2022/04/15 02:54:38;;;;;;;6.20;2.85;;;;;;;5.85;100.00;102719.47;5112628;28;20043;-32
2022/04/15 02:57:07;;;;;;;2.50;1.70;;;;;;;5.84;100.00;102720.53;5113684;28;20047;-26
2022/04/15 02:59:35;;;;;;;3.63;2.58;;;;;;;5.83;100.00;102723.53;5113750;28;20048;-30
2022/04/15 03:02:03;;;;;;;3.53;2.00;;;;;;;5.81;100.00;102720.97;5112896;28;20063;-26
2022/04/15 03:04:30;;;;;;;4.13;2.00;;;;;;;5.80;100.00;102723.97;5113312;28;20556;-27
2022/04/15 03:06:59;;;;;;;3.85;1.80;;;;;;;5.78;100.00;102718.69;5112355;28;20135;-25
2022/04/15 03:09:28;;;;;;;3.58;2.03;;;;;;;5.75;100.00;102719.13;5113440;28;20121;-34
2022/04/15 03:11:55;;;;;;;2.95;1.52;;;;;;;5.74;100.00;102720.19;5113252;28;20059;-29
2022/04/15 03:14:24;;;;;;;3.53;1.80;;;;;;;5.71;100.00;102717.84;5112509;27;20441;-29
2022/04/15 03:16:52;;;;;;;5.05;2.72;;;;;;;5.70;100.00;102720.84;5113219;28;20588;-25
2022/04/15 03:19:19;;;;;;;4.90;2.60;;;;;;;5.70;100.00;102720.84;5113066;28;20400;-28
2022/04/15 03:21:47;;;;;;;4.75;2.50;;;;;;;5.67;100.00;102722.13;5112026;28;20507;-28
2022/04/15 03:24:16;;;;;;;4.47;2.03;;;;;;;5.66;100.00;102725.97;5112943;28;20076;-25
2022/04/15 03:26:44;;;;;;;3.22;1.58;;;;;;;5.65;100.00;102724.25;5113332;28;20395;-26
2022/04/15 03:29:12;;;;;;;3.88;1.80;;;;;;;5.62;100.00;102719.16;5111525;28;20134;-27
2022/04/15 03:31:40;;;;;;;3.22;1.90;;;;;;;5.62;100.00;102729.38;5111347;28;20627;-32
2022/04/15 03:34:08;;;;;;;3.58;2.00;;;;;;;5.62;100.00;102727.47;5109612;28;20039;-27
2022/04/15 03:36:35;;;;;;;4.10;2.30;;;;;;;5.62;100.00;102732.16;5109600;28;20052;-27
2022/04/15 03:39:03;;;;;;;3.28;1.60;;;;;;;5.60;100.00;102726.84;5111044;28;20495;-31
2022/04/15 03:41:32;;;;;;;3.60;1.80;;;;;;;5.61;100.00;102736.84;5111177;28;20043;-29
2022/04/15 03:44:01;;;;;;;6.53;2.65;;;;;;;5.63;100.00;102731.09;5110249;28;20051;-30
2022/04/15 03:46:29;;;;;;;4.22;2.00;;;;;;;5.68;100.00;102732.13;5110117;28;20480;-28
2022/04/15 03:48:56;;;;;;;4.90;2.75;;;;;;;5.73;100.00;102737.88;5111975;28;20054;-34
2022/04/15 03:51:24;;;;;;;3.45;2.10;;;;;;;5.78;100.00;102740.00;5112482;28;20385;-32
2022/04/15 03:53:52;;;;;;;3.05;1.95;;;;;;;5.83;100.00;102743.78;5112529;28;20077;-26
2022/04/15 03:56:20;;;;;;;4.18;2.33;;;;;;;5.88;100.00;102745.88;5111682;28;20066;-27
2022/04/15 03:58:49;;;;;;;6.57;2.90;;;;;;;5.94;100.00;102744.19;5112283;28;20044;-31
2022/04/15 04:01:16;;;;;;;4.03;2.30;;;;;;;5.98;100.00;102746.28;5112167;28;20426;-31
2022/04/15 04:03:45;;;;;;;3.83;2.20;;;;;;;6.03;100.00;102751.16;5111809;28;20051;-30
2022/04/15 04:06:12;;;;;;;4.05;1.90;;;;;;;6.08;100.00;102746.63;5112160;28;20511;-27
2022/04/15 04:08:41;;;;;;;2.53;1.50;;;;;;;6.15;100.00;102754.91;5112232;28;20069;-28
2022/04/15 04:11:09;;;;;;;6.20;2.97;;;;;;;6.18;100.00;102758.09;5111297;28;20138;-29
2022/04/15 04:13:37;;;;;;;3.45;1.80;;;;;;;6.24;100.00;102756.34;5112115;28;20035;-30
2022/04/15 04:16:06;;;;;;;3.63;1.80;;;;;;;6.30;100.00;102766.53;5112327;28;20047;-27
2022/04/15 04:18:34;;;;;;;2.65;1.70;;;;;;;6.35;100.00;102763.09;5100338;28;20039;-30
2022/04/15 04:21:01;;;;;;;3.63;1.85;;;;;;;6.40;100.00;102761.31;5111939;28;20054;-32
2022/04/15 04:23:29;;;;;;;2.83;2.00;;;;;;;6.46;100.00;102767.91;5112262;28;20058;-30
2022/04/15 04:25:57;;;;;;;4.10;2.25;;;;;;;6.49;100.00;102771.09;5110969;28;20079;-32
2022/04/15 04:28:25;;;;;;;4.20;1.90;;;;;;;6.55;100.00;102769.34;5111907;28;20412;-27
2022/04/15 04:30:53;;;;;;;5.35;2.03;;;;;;;6.60;100.00;102772.25;5111675;28;20408;-28
2022/04/15 04:33:22;;;;;;;3.20;2.20;;;;;;;6.64;100.00;102772.66;5110940;28;20067;-25
2022/04/15 04:35:51;;;;;;;2.85;1.70;;;;;;;6.67;100.00;102772.22;5111767;28;20412;-26
2022/04/15 04:38:19;;;;;;;4.25;1.90;;;;;;;6.67;100.00;102767.53;5110898;28;20048;-34
2022/04/15 04:40:47;;;;;;;4.53;2.55;;;;;;;6.67;100.00;102775.00;5112588;28;20066;-28
2022/04/15 04:43:15;;;;;;;4.20;2.22;;;;;;;6.66;100.00;102782.47;5116037;28;20043;-28
2022/04/15 04:45:43;;;;;;;3.03;1.50;;;;;;;6.65;100.00;102775.22;5114984;27;20377;-28
2022/04/15 04:48:11;;;;;;;3.78;1.30;;;;;;;6.63;100.00;102777.38;5115801;28;20485;-29
2022/04/15 04:50:40;;;;;;;1.90;1.10;;;;;;;6.63;100.00;102776.50;5115992;28;20056;-30
2022/04/15 04:53:07;;;;;;;2.05;1.27;;;;;;;6.61;100.00;102786.97;5115003;28;20051;-28
2022/04/15 04:55:35;;;;;;;2.58;1.27;;;;;;;6.59;100.00;102789.16;5115716;28;20043;-28
2022/04/15 04:58:03;;;;;;;2.65;1.40;;;;;;;6.57;100.00;102795.78;5115682;28;20035;-30
2022/04/15 05:00:30;;;;;;;3.60;1.83;;;;;;;6.54;100.00;102799.00;5114647;28;20044;-34
2022/04/15 05:02:59;;;;;;;2.00;1.33;;;;;;;6.54;100.00;102799.00;5115576;27;20523;-28
2022/04/15 05:05:28;;;;;;;2.38;1.50;;;;;;;6.54;100.00;102795.38;5113501;28;20047;-28
2022/04/15 05:07:57;;;;;;;2.30;1.13;;;;;;;6.53;100.00;102811.16;5112868;28;20047;-28
2022/04/15 05:10:25;;;;;;;3.10;1.30;;;;;;;6.54;100.00;102814.78;5114109;28;20047;-29
2022/04/15 05:12:52;;;;;;;2.92;1.38;;;;;;;6.53;100.00;102813.09;5114988;28;20040;-27
2022/04/15 05:15:20;;;;;;;2.58;1.50;;;;;;;6.54;100.00;102818.41;5114650;28;20047;-24
2022/04/15 05:17:48;;;;;;;3.00;1.95;;;;;;;6.56;100.00;102824.59;5114222;28;20044;-26
2022/04/15 05:20:15;;;;;;;2.72;1.65;;;;;;;6.61;100.00;102828.59;5115112;28;20055;-27
2022/04/15 05:22:44;;;;;;;4.47;2.72;;;;;;;6.63;100.00;102829.22;5114653;28;20473;-28
2022/04/15 05:25:13;;;;;;;3.88;2.40;;;;;;;6.69;100.00;102825.56;5114218;28;20046;-28
2022/04/15 05:27:41;;;;;;;4.45;2.75;;;;;;;6.71;100.00;102821.47;5112415;28;20566;-25
2022/04/15 05:30:11;;;;;;;6.93;3.08;;;;;;;6.74;100.00;102829.34;5112362;28;20147;-27
2022/04/15 05:32:38;;;;;;;3.38;2.33;;;;;;;6.78;100.00;102846.41;5113832;28;20051;-28
2022/04/15 05:35:07;;;;;;;4.13;2.80;;;;;;;6.82;100.00;102842.09;5113068;28;20036;-27
2022/04/15 05:37:35;;;;;;;6.40;3.25;;;;;;;6.86;100.00;102838.63;5114125;28;20055;-26
2022/04/15 05:40:04;;;;;;;5.07;3.00;;;;;;;6.93;100.00;102844.16;5113476;28;20056;-31
2022/04/15 05:42:33;;;;;;;4.63;2.63;;;;;;;7.00;100.00;102844.06;5113066;28;20044;-30
2022/04/15 05:45:00;;;;;;;5.10;3.28;;;;;;;7.08;100.00;102849.34;5113632;28;20044;-27
2022/04/15 05:47:28;;;;;;;4.15;2.95;;;;;;;7.16;100.00;102861.03;5112966;28;20051;-29
2022/04/15 05:49:56;;;;;;;4.15;2.38;;;;;;;7.23;100.00;102864.56;5113052;28;20066;-27
2022/04/15 05:52:29;;;;;;;5.45;2.88;;;;;;;7.32;100.00;102861.50;5111185;28;20043;-29
2022/04/15 05:54:57;;;;;;;3.53;2.33;;;;;;;7.40;100.00;102861.19;5113607;28;20043;-31
2022/04/15 05:57:25;;;;;;;4.10;2.05;;;;;;;7.48;100.00;102866.47;5112781;28;20065;-31
2022/04/15 05:59:54;;;;;;;3.40;1.88;;;;;;;7.56;100.00;102857.84;5113013;28;20035;-25
2022/04/15 06:02:22;;;;;;;3.03;1.98;;;;;;;7.65;100.00;102864.78;5110900;28;20454;-26
2022/04/15 06:04:50;;;;;;;3.08;1.95;;;;;;;7.73;100.00;102870.06;5112410;28;20039;-25
2022/04/15 06:07:18;;;;;;;3.63;2.10;;;;;;;7.82;100.00;102874.22;5113194;28;20040;-33
2022/04/15 06:09:46;;;;;;;3.50;1.77;;;;;;;7.90;100.00;102879.47;5112223;28;20047;-27
2022/04/15 06:12:13;;;;;;;5.57;2.58;;;;;;;7.97;100.00;102884.97;5113375;27;20043;-26
2022/04/15 06:14:41;;;;;;;3.45;1.95;;;;;;;8.06;100.00;102888.25;5113147;28;20128;-29
2022/04/15 06:17:10;;;;;;;4.10;2.40;;;;;;;8.14;100.00;102890.72;5111850;28;20075;-27
2022/04/15 06:19:38;;;;;;;3.95;2.60;;;;;;;8.21;100.00;102891.47;5112858;28;20139;-33
2022/04/15 06:22:10;;;;;;;3.65;2.00;;;;;;;8.25;100.00;102887.16;5112740;28;20421;-25
2022/04/15 06:24:38;;;;;;;3.25;1.98;;;;;;;8.32;100.00;102890.72;5112517;28;20047;-26
2022/04/15 06:27:06;;;;;;;4.15;2.05;;;;;;;8.40;100.00;102892.31;5112624;28;20047;-29
2022/04/15 06:29:33;;;;;;;3.22;1.40;;;;;;;8.49;100.00;102897.34;5112758;27;20040;-29
2022/04/15 06:32:01;;;;;;;2.83;1.30;;;;;;;8.56;100.00;102889.75;5111484;28;20051;-26
2022/04/15 06:34:30;;;;;;;2.65;1.85;;;;;;;8.65;100.00;102893.03;5112603;28;20452;-34
2022/04/15 06:36:58;;;;;;;2.38;1.30;;;;;;;8.73;100.00;102900.22;5112759;28;20051;-29
2022/04/15 06:39:29;;;;;;;3.15;1.77;;;;;;;8.78;100.00;102904.00;5111181;28;20113;-30
2022/04/15 06:41:56;;;;;;;4.75;1.70;;;;;;;8.85;100.00;102901.09;5112263;28;20450;-29
2022/04/15 06:44:24;;;;;;;3.08;1.92;;;;;;;8.92;100.00;102907.41;5112043;28;20054;-32
2022/04/15 06:46:52;;;;;;;5.85;2.15;;;;;;;8.98;100.00;102898.13;5111350;28;20086;-27
2022/04/15 06:49:20;;;;;;;3.22;1.70;;;;;;;9.03;100.00;102905.72;5112487;28;20065;-27
2022/04/15 06:51:49;;;;;;;3.95;2.00;;;;;;;9.05;100.00;102907.19;5108619;28;20383;-36
2022/04/15 06:54:17;;;;;;;2.53;1.20;;;;;;;9.09;100.00;102911.19;5112023;28;20128;-31
2022/04/15 06:56:44;;;;;;;3.00;1.83;;;;;;;9.17;100.00;102905.28;5112363;28;20048;-30
2022/04/15 06:59:16;;;;;;;3.25;1.88;;;;;;;9.24;100.00;102907.94;5111844;28;20065;-25
2022/04/15 07:01:44;;;;;;;3.80;2.00;;;;;;;9.30;100.00;102896.69;5111740;28;20049;-25
2022/04/15 07:04:12;;;;;;;3.30;1.75;;;;;;;9.38;100.00;102903.88;5111272;28;20063;-28
2022/04/15 07:06:40;;;;;;;2.83;1.58;;;;;;;9.41;100.00;102908.94;5112138;28;20116;-30
2022/04/15 07:09:09;;;;;;;3.58;1.80;;;;;;;9.49;100.00;102900.22;5113535;28;20425;-30
2022/04/15 07:11:36;;;;;;;4.05;2.15;;;;;;;9.53;100.00;102908.94;5112784;28;20134;-24
2022/04/15 07:14:05;;;;;;;3.50;1.80;;;;;;;9.54;100.00;102911.50;5112638;28;20044;-27
2022/04/15 07:16:34;;;;;;;3.30;1.95;;;;;;;9.58;100.00;102911.88;5110863;28;20043;-31
2022/04/15 07:19:04;;;;;;;4.00;2.80;;;;;;;9.64;100.00;102911.72;5111966;28;20065;-30
2022/04/15 07:21:32;;;;;;;3.45;2.17;;;;;;;9.69;100.00;102911.00;5111998;28;20100;-28
2022/04/15 07:24:00;;;;;;;3.42;1.83;;;;;;;9.76;100.00;102914.53;5112544;28;20084;-29
2022/04/15 07:26:29;;;;;;;4.28;2.42;;;;;;;9.84;100.00;102918.88;5112474;28;20134;-26
2022/04/15 07:28:57;;;;;;;4.47;2.50;;;;;;;9.87;100.00;102918.38;5110742;28;20047;-28
2022/04/15 07:31:25;;;;;;;3.20;1.85;;;;;;;9.93;100.00;102921.06;5112596;28;20071;-29
2022/04/15 07:33:53;;;;;;;3.53;2.30;;;;;;;10.00;100.00;102909.75;5112538;28;20131;-29
2022/04/15 07:36:43;;;;;;;4.20;2.60;;;;;;;10.05;100.00;102928.53;5112355;28;20047;-33
2022/04/15 07:39:14;;;;;;;4.20;2.60;;;;;;;10.07;100.00;102929.16;5112668;28;20059;-37
2022/04/15 07:41:45;;;;;;;4.95;2.30;;;;;;;10.12;100.00;102929.25;5104311;28;20036;-31
2022/04/15 07:44:13;;;;;;;3.45;1.98;;;;;;;10.17;100.00;102923.81;5112585;28;20066;-25
2022/04/15 07:46:43;;;;;;;4.10;1.90;;;;;;;10.22;100.00;102927.56;5112770;28;20090;-28
2022/04/15 07:49:11;;;;;;;3.42;1.70;;;;;;;10.29;100.00;102930.22;5111303;28;20404;-28
2022/04/15 07:51:39;;;;;;;5.47;2.10;;;;;;;10.34;100.00;102930.34;5112432;28;20412;-28
2022/04/15 07:54:09;;;;;;;4.50;1.90;;;;;;;10.38;100.00;102936.28;5111841;28;20128;-26
2022/04/15 07:56:37;;;;;;;5.43;2.53;;;;;;;10.37;100.00;102941.00;5108925;28;20049;-31
2022/04/15 07:59:07;;;;;;;4.60;2.65;;;;;;;10.34;100.00;102936.75;5109904;28;20050;-30
2022/04/15 08:01:35;;;;;;;4.13;2.35;;;;;;;10.36;100.00;102939.31;5112126;28;20084;-26
2022/04/15 08:04:03;;;;;;;6.05;3.15;;;;;;;10.38;100.00;102937.13;5111122;28;20409;-33
2022/04/15 08:06:31;;;;;;;5.32;2.60;;;;;;;10.39;100.00;102938.81;5112067;28;20048;-25
2022/04/15 08:09:00;;;;;;;4.13;2.08;;;;;;;10.36;100.00;102936.53;5111683;28;20485;-30
2022/04/15 08:11:28;;;;;;;3.40;1.60;;;;;;;10.32;100.00;102940.91;5111365;28;20043;-31
2022/04/15 08:13:56;;;;;;;3.10;1.73;;;;;;;10.33;100.00;102939.81;5112196;28;20040;-26
2022/04/15 08:16:26;;;;;;;3.70;1.60;;;;;;;10.35;100.00;102938.47;5111509;28;20041;-29
2022/04/15 08:18:55;;;;;;;2.20;1.30;;;;;;;10.39;100.00;102938.81;5110959;28;20527;-26
2022/04/15 08:21:23;;;;;;;3.08;1.70;;;;;;;10.43;100.00;102950.31;5112328;28;20132;-27
2022/04/15 08:23:51;;;;;;;2.45;1.52;;;;;;;10.44;100.00;102947.28;5111276;28;20052;-31
2022/04/15 08:26:18;;;;;;;2.72;1.63;;;;;;;10.46;100.00;102947.88;5112398;28;20050;-33
2022/04/15 08:28:46;;;;;;;3.42;1.58;;;;;;;10.46;100.00;102953.47;5112039;28;20055;-29
2022/04/15 08:31:14;;;;;;;2.15;1.10;;;;;;;10.48;100.00;102954.06;5109783;28;20047;-27
2022/04/15 08:33:43;;;;;;;2.65;1.35;;;;;;;10.52;100.00;102943.25;5111813;28;20549;-30
2022/04/15 08:36:11;;;;;;;3.47;1.55;;;;;;;10.50;100.00;102940.72;5111807;28;20404;-31
2022/04/15 08:38:39;;;;;;;2.20;1.20;;;;;;;10.51;100.00;102947.16;5111342;28;20056;-26
2022/04/15 08:41:13;;;;;;;2.33;1.48;;;;;;;10.55;100.00;102951.16;5110587;28;20051;-28
2022/04/15 08:43:42;;;;;;;2.60;1.20;;;;;;;10.58;100.00;102954.28;5111975;28;20175;-30
2022/04/15 08:46:12;;;;;;;3.15;1.40;;;;;;;10.65;100.00;102959.72;5111466;28;20039;-29
2022/04/15 08:48:41;;;;;;;2.38;1.40;;;;;;;10.68;100.00;102962.84;5111645;28;20044;-31
2022/04/15 08:51:11;;;;;;;2.75;1.42;;;;;;;10.74;100.00;102962.97;5111996;28;20048;-29
2022/04/15 08:53:40;;;;;;;3.08;1.50;;;;;;;10.75;100.00;102962.72;5111174;28;20052;-26
2022/04/15 08:56:08;;;;;;;2.33;1.50;;;;;;;10.75;100.00;102973.03;5111827;28;20075;-26
2022/04/15 08:58:36;;;;;;;2.95;1.45;;;;;;;10.73;100.00;102972.44;5110944;28;20469;-30
2022/04/15 09:01:03;;;;;;;2.67;1.27;;;;;;;10.73;100.00;102978.03;5111540;28;20042;-30
2022/04/15 09:03:31;;;;;;;3.80;1.63;;;;;;;10.74;100.00;102980.56;5111913;28;20093;-27
2022/04/15 09:05:59;;;;;;;2.47;1.58;;;;;;;10.76;100.00;102983.13;5111062;28;20047;-29
2022/04/15 09:08:29;;;;;;;4.07;1.67;;;;;;;10.78;100.00;102980.94;5111848;28;20417;-27
2022/04/15 09:10:59;;;;;;;3.35;1.67;;;;;;;10.76;100.00;102988.69;5111583;28;20050;-29
2022/04/15 09:13:33;;;;;;;2.00;1.30;;;;;;;10.78;100.00;102986.50;5100693;28;20077;-28
2022/04/15 09:16:02;;;;;;;1.70;1.13;;;;;;;10.75;100.00;102989.81;5108870;28;20126;-28
2022/04/15 09:18:32;;;;;;;2.22;1.40;;;;;;;10.72;100.00;102990.28;5111813;28;20048;-28
2022/04/15 09:21:17;;;;;;;2.72;1.40;;;;;;;10.71;100.00;103000.63;5110048;28;20515;-26
2022/04/15 09:23:49;;;;;;;2.40;1.30;;;;;;;10.66;100.00;102989.31;5111716;28;20365;-31
2022/04/15 09:26:17;;;;;;;2.13;1.08;;;;;;;10.66;100.00;102992.13;5107961;28;20485;-32
2022/04/15 09:28:45;;;;;;;2.15;1.13;;;;;;;10.73;100.00;102997.56;5114901;28;20051;-29
2022/04/15 09:31:14;;;;;;;2.45;1.30;;;;;;;10.80;100.00;102992.66;5115012;28;20039;-24
2022/04/15 09:33:57;;;;;;;2.40;1.00;;;;;;;10.84;100.00;102999.47;5113418;28;20447;-29
2022/04/15 09:36:30;;;;;;;2.80;1.45;;;;;;;10.81;100.00;102994.38;5114439;28;20050;-28
2022/04/15 09:39:10;;;;;;;3.05;1.55;;;;;;;10.81;100.00;102999.94;5115411;28;20131;-26
2022/04/15 09:41:39;;;;;;;2.80;1.40;;;;;;;10.82;100.00;103004.44;5113149;28;20138;-30
2022/04/15 09:44:11;;;;;;;2.30;1.00;;;;;;;10.85;100.00;103007.59;5115053;28;20063;-26
2022/04/15 09:46:41;;;;;;;3.25;1.30;;;;;;;10.90;100.00;103012.44;5114867;28;20135;-28
2022/04/15 09:49:10;;;;;;;3.92;1.40;;;;;;;10.94;100.00;103011.69;5110504;28;20104;-28
2022/04/15 09:51:43;;;;;;;3.05;1.50;;;;;;;11.00;100.00;103018.22;5114819;28;20232;-33
2022/04/15 09:54:22;;;;;;;2.38;1.42;;;;;;;11.05;99.89;103018.31;5115106;28;20075;-28
2022/04/15 09:56:51;;;;;;;4.25;2.22;;;;;;;11.07;99.28;103023.66;5113668;28;20044;-27
2022/04/15 09:59:21;;;;;;;3.15;1.42;;;;;;;11.12;99.27;103019.03;5114655;28;20040;-32
2022/04/15 10:01:54;;;;;;;2.30;1.20;;;;;;;11.21;98.46;103030.63;5113921;28;20054;-27
2022/04/15 10:04:24;;;;;;;3.05;1.30;;;;;;;11.17;97.17;103030.31;5114241;28;20036;-26
2022/04/15 10:06:53;;;;;;;3.08;1.50;;;;;;;11.25;97.75;103026.25;5114251;28;20146;-32
2022/04/15 10:09:23;;;;;;;2.33;1.25;;;;;;;11.33;97.44;103026.69;5112222;28;20125;-31
2022/04/15 10:11:51;;;;;;;1.92;1.00;;;;;;;11.40;96.71;103030.16;5113618;28;20537;-31
2022/04/15 10:14:21;;;;;;;2.97;1.00;;;;;;;11.47;96.08;103023.56;5113284;28;20067;-29
2022/04/15 10:16:49;;;;;;;2.20;1.13;;;;;;;11.52;95.18;103032.06;5104029;28;20671;-29
2022/04/15 10:19:19;;;;;;;2.35;1.30;;;;;;;11.54;94.61;103030.72;5114227;28;20057;-27
2022/04/15 10:21:51;;;;;;;2.30;1.25;;;;;;;11.58;93.82;103025.47;5114290;28;20073;-34
2022/04/15 10:24:19;;;;;;;2.58;1.30;;;;;;;11.61;93.63;103030.53;5113544;28;20067;-28
2022/04/15 10:26:50;;;;;;;3.15;1.88;;;;;;;11.64;93.61;103030.88;5114291;28;20749;-27
2022/04/15 10:29:17;;;;;;;4.38;2.78;;;;;;;11.67;93.21;103029.53;5114092;28;20035;-27
2022/04/15 10:31:48;;;;;;;4.25;2.50;;;;;;;11.74;93.70;103030.22;5113171;28;20050;-32
2022/04/15 10:34:17;;;;;;;3.63;2.60;;;;;;;11.81;93.29;103030.91;5114018;28;20067;-28
2022/04/15 10:36:47;;;;;;;5.05;2.65;;;;;;;11.89;92.65;103038.03;5113422;28;20108;-26
2022/04/15 10:39:20;;;;;;;7.65;4.22;;;;;;;11.91;91.52;103033.88;5110876;28;20062;-29
2022/04/15 10:42:01;;;;;;;5.35;3.25;;;;;;;11.90;91.27;103025.75;5113612;28;20044;-31
2022/04/15 10:44:31;;;;;;;5.88;4.00;;;;;;;11.95;90.93;103031.44;5102268;28;20055;-29
2022/04/15 10:47:22;;;;;;;6.20;4.18;;;;;;;12.02;90.27;103037.66;5113091;28;20039;-31
2022/04/15 10:49:55;;;;;;;5.57;3.80;;;;;;;12.04;88.84;103036.31;5099275;28;20135;-28
2022/04/15 10:52:25;;;;;;;4.78;3.25;;;;;;;12.10;88.77;103033.59;5112632;28;20066;-34
2022/04/15 10:54:55;;;;;;;5.40;3.67;;;;;;;12.16;87.81;103021.41;5113588;28;20047;-33
2022/04/15 10:57:32;;;;;;;5.68;3.63;;;;;;;12.30;88.10;103028.31;5113139;28;20061;-29
2022/04/15 11:02:48;;;;;;;6.32;3.88;;;;;;;12.43;85.82;103025.13;5113165;28;20044;-28
2022/04/15 11:05:33;;;;;;;6.03;3.85;;;;;;;12.43;86.05;103025.13;5112578;28;20050;-27
2022/04/15 11:08:05;;;;;;;5.50;3.88;;;;;;;12.58;86.41;103030.13;5113244;28;20046;-28
2022/04/15 11:10:48;;;;;;;7.80;4.38;;;;;;;12.61;83.97;103030.41;5113257;28;20426;-29
2022/04/15 11:13:34;;;;;;;6.70;4.22;;;;;;;12.62;83.90;103032.09;5112472;28;20084;-26
2022/04/15 11:16:11;;;;;;;4.20;3.22;;;;;;;12.54;83.04;103024.19;5113065;28;20047;-28
2022/04/15 11:18:50;;;;;;;5.38;3.75;;;;;;;12.62;84.13;103026.50;5112948;28;20051;-25
2022/04/15 11:21:27;;;;;;;6.60;4.20;;;;;;;12.78;84.47;103027.56;5112448;28;20060;-28
2022/04/15 11:23:57;;;;;;;4.95;4.00;;;;;;;12.87;83.19;103034.41;5112806;28;20046;-26
2022/04/15 11:26:27;;;;;;;7.20;4.07;;;;;;;12.82;82.07;103033.47;5112086;28;20142;-29
2022/04/15 11:28:58;;;;;;;5.90;4.43;;;;;;;12.78;82.49;103030.38;5112868;27;20050;-26
2022/04/15 11:31:27;;;;;;;5.07;3.22;;;;;;;12.82;82.55;103037.13;5112678;28;20071;-28
2022/04/15 11:33:56;;;;;;;5.97;3.88;;;;;;;12.93;83.07;103032.50;5110935;28;20462;-30
2022/04/15 11:36:25;;;;;;;5.38;3.63;;;;;;;13.10;83.32;103022.06;5111820;28;20072;-27
2022/04/15 11:38:53;;;;;;;5.25;3.50;;;;;;;13.21;82.94;103031.44;5111022;28;20069;-29